sensor_id;sensor_type;location;lat;lon;timestamp;pressure;altitude;pressure_sealevel;temperature
12918;BMP180;6526;54.312;13.092;2022-11-20T00:01:17;101293.00;;;5.70
12918;BMP180;6526;54.312;13.092;2022-11-20T00:03:43;101290.00;;;5.60
12918;BMP180;6526;54.312;13.092;2022-11-20T00:06:13;101292.00;;;5.70
12918;BMP180;6526;54.312;13.092;2022-11-20T00:08:39;101290.00;;;5.70
12918;BMP180;6526;54.312;13.092;2022-11-20T00:11:07;101285.00;;;5.70
12918;BMP180;6526;54.312;13.092;2022-11-20T00:13:34;101291.00;;;5.70
12918;BMP180;6526;54.312;13.092;2022-11-20T00:16:02;101288.00;;;5.60
12918;BMP180;6526;54.312;13.092;2022-11-20T00:18:28;101290.00;;;5.60
12918;BMP180;6526;54.312;13.092;2022-11-20T00:21:01;101295.00;;;5.60
12918;BMP180;6526;54.312;13.092;2022-11-20T00:23:27;101280.00;;;5.70
12918;BMP180;6526;54.312;13.092;2022-11-20T00:25:53;101298.00;;;5.70
12918;BMP180;6526;54.312;13.092;2022-11-20T00:28:19;101284.00;;;5.70
12918;BMP180;6526;54.312;13.092;2022-11-20T00:30:45;101281.00;;;5.70
12918;BMP180;6526;54.312;13.092;2022-11-20T00:33:11;101285.00;;;5.80
12918;BMP180;6526;54.312;13.092;2022-11-20T00:35:37;101289.00;;;5.90
12918;BMP180;6526;54.312;13.092;2022-11-20T00:38:03;101282.00;;;5.90
12918;BMP180;6526;54.312;13.092;2022-11-20T00:40:29;101284.00;;;5.90
12918;BMP180;6526;54.312;13.092;2022-11-20T00:42:55;101288.00;;;5.90
12918;BMP180;6526;54.312;13.092;2022-11-20T00:45:22;101293.00;;;5.70
12918;BMP180;6526;54.312;13.092;2022-11-20T00:47:48;101295.00;;;5.70
12918;BMP180;6526;54.312;13.092;2022-11-20T00:50:14;101291.00;;;5.70
12918;BMP180;6526;54.312;13.092;2022-11-20T00:52:40;101291.00;;;5.70
12918;BMP180;6526;54.312;13.092;2022-11-20T00:55:06;101294.00;;;5.70
12918;BMP180;6526;54.312;13.092;2022-11-20T00:57:32;101293.00;;;5.60
12918;BMP180;6526;54.312;13.092;2022-11-20T00:59:58;101298.00;;;5.60
12918;BMP180;6526;54.312;13.092;2022-11-20T01:02:24;101296.00;;;5.60
12918;BMP180;6526;54.312;13.092;2022-11-20T01:04:50;101291.00;;;5.50
12918;BMP180;6526;54.312;13.092;2022-11-20T01:07:16;101292.00;;;5.50
12918;BMP180;6526;54.312;13.092;2022-11-20T01:09:42;101297.00;;;5.50
12918;BMP180;6526;54.312;13.092;2022-11-20T01:12:09;101291.00;;;5.50
12918;BMP180;6526;54.312;13.092;2022-11-20T01:14:35;101298.00;;;5.50
12918;BMP180;6526;54.312;13.092;2022-11-20T01:17:01;101285.00;;;5.60
12918;BMP180;6526;54.312;13.092;2022-11-20T01:19:27;101288.00;;;5.60
12918;BMP180;6526;54.312;13.092;2022-11-20T01:21:54;101288.00;;;5.60
12918;BMP180;6526;54.312;13.092;2022-11-20T01:24:21;101288.00;;;5.60
12918;BMP180;6526;54.312;13.092;2022-11-20T01:26:49;101286.00;;;5.60
12918;BMP180;6526;54.312;13.092;2022-11-20T01:29:24;101282.00;;;5.60
12918;BMP180;6526;54.312;13.092;2022-11-20T01:31:50;101289.00;;;5.40
12918;BMP180;6526;54.312;13.092;2022-11-20T01:34:19;101279.00;;;5.30
12918;BMP180;6526;54.312;13.092;2022-11-20T01:36:46;101291.00;;;5.30
12918;BMP180;6526;54.312;13.092;2022-11-20T01:39:18;101298.00;;;5.20
12918;BMP180;6526;54.312;13.092;2022-11-20T01:41:46;101288.00;;;5.20
12918;BMP180;6526;54.312;13.092;2022-11-20T01:44:56;101293.00;;;5.30
12918;BMP180;6526;54.312;13.092;2022-11-20T01:47:33;101289.00;;;5.20
12918;BMP180;6526;54.312;13.092;2022-11-20T01:52:49;101295.00;;;5.00
12918;BMP180;6526;54.312;13.092;2022-11-20T01:55:25;101293.00;;;5.10
12918;BMP180;6526;54.312;13.092;2022-11-20T01:57:53;101298.00;;;5.30
12918;BMP180;6526;54.312;13.092;2022-11-20T02:00:20;101285.00;;;5.30
12918;BMP180;6526;54.312;13.092;2022-11-20T02:02:50;101284.00;;;5.20
12918;BMP180;6526;54.312;13.092;2022-11-20T02:05:23;101281.00;;;4.90
12918;BMP180;6526;54.312;13.092;2022-11-20T02:07:50;101284.00;;;4.80
12918;BMP180;6526;54.312;13.092;2022-11-20T02:10:16;101282.00;;;5.00
12918;BMP180;6526;54.312;13.092;2022-11-20T02:12:42;101286.00;;;4.90
12918;BMP180;6526;54.312;13.092;2022-11-20T02:15:27;101295.00;;;4.80
12918;BMP180;6526;54.312;13.092;2022-11-20T02:17:54;101287.00;;;4.80
12918;BMP180;6526;54.312;13.092;2022-11-20T02:20:20;101284.00;;;4.90
12918;BMP180;6526;54.312;13.092;2022-11-20T02:25:20;101296.00;;;5.10
12918;BMP180;6526;54.312;13.092;2022-11-20T02:27:47;101290.00;;;5.20
12918;BMP180;6526;54.312;13.092;2022-11-20T02:30:13;101278.00;;;5.20
12918;BMP180;6526;54.312;13.092;2022-11-20T02:32:40;101282.00;;;5.20
12918;BMP180;6526;54.312;13.092;2022-11-20T02:37:57;101283.00;;;5.30
12918;BMP180;6526;54.312;13.092;2022-11-20T02:40:25;101275.00;;;5.30
12918;BMP180;6526;54.312;13.092;2022-11-20T02:42:55;101285.00;;;5.30
12918;BMP180;6526;54.312;13.092;2022-11-20T02:45:21;101279.00;;;5.30
12918;BMP180;6526;54.312;13.092;2022-11-20T02:47:48;101279.00;;;5.30
12918;BMP180;6526;54.312;13.092;2022-11-20T02:50:15;101284.00;;;5.30
12918;BMP180;6526;54.312;13.092;2022-11-20T02:52:41;101283.00;;;5.20
12918;BMP180;6526;54.312;13.092;2022-11-20T02:55:07;101277.00;;;5.20
12918;BMP180;6526;54.312;13.092;2022-11-20T02:57:33;101280.00;;;5.20
12918;BMP180;6526;54.312;13.092;2022-11-20T02:59:59;101274.00;;;5.10
12918;BMP180;6526;54.312;13.092;2022-11-20T03:02:25;101274.00;;;5.20
12918;BMP180;6526;54.312;13.092;2022-11-20T03:04:55;101270.00;;;5.30
12918;BMP180;6526;54.312;13.092;2022-11-20T03:07:21;101259.00;;;5.30
12918;BMP180;6526;54.312;13.092;2022-11-20T03:09:47;101270.00;;;5.50
12918;BMP180;6526;54.312;13.092;2022-11-20T03:12:13;101273.00;;;5.40
12918;BMP180;6526;54.312;13.092;2022-11-20T03:14:39;101266.00;;;5.30
12918;BMP180;6526;54.312;13.092;2022-11-20T03:17:05;101272.00;;;5.20
12918;BMP180;6526;54.312;13.092;2022-11-20T03:19:31;101267.00;;;5.00
12918;BMP180;6526;54.312;13.092;2022-11-20T03:21:57;101273.00;;;5.00
12918;BMP180;6526;54.312;13.092;2022-11-20T03:24:23;101268.00;;;5.10
12918;BMP180;6526;54.312;13.092;2022-11-20T03:26:49;101267.00;;;5.10
12918;BMP180;6526;54.312;13.092;2022-11-20T03:29:15;101277.00;;;5.20
12918;BMP180;6526;54.312;13.092;2022-11-20T03:31:42;101263.00;;;5.30
12918;BMP180;6526;54.312;13.092;2022-11-20T03:34:10;101272.00;;;5.20
12918;BMP180;6526;54.312;13.092;2022-11-20T03:36:40;101261.00;;;5.00
12918;BMP180;6526;54.312;13.092;2022-11-20T03:39:07;101250.00;;;5.10
12918;BMP180;6526;54.312;13.092;2022-11-20T03:41:40;101253.00;;;5.00
12918;BMP180;6526;54.312;13.092;2022-11-20T03:44:09;101244.00;;;5.10
12918;BMP180;6526;54.312;13.092;2022-11-20T03:46:35;101260.00;;;5.00
12918;BMP180;6526;54.312;13.092;2022-11-20T03:49:02;101248.00;;;5.00
12918;BMP180;6526;54.312;13.092;2022-11-20T03:51:34;101244.00;;;5.10
12918;BMP180;6526;54.312;13.092;2022-11-20T03:54:02;101253.00;;;5.10
12918;BMP180;6526;54.312;13.092;2022-11-20T03:56:32;101236.00;;;5.30
12918;BMP180;6526;54.312;13.092;2022-11-20T03:58:59;101255.00;;;5.40
12918;BMP180;6526;54.312;13.092;2022-11-20T04:01:28;101242.00;;;5.30
12918;BMP180;6526;54.312;13.092;2022-11-20T04:03:55;101241.00;;;5.40
12918;BMP180;6526;54.312;13.092;2022-11-20T04:06:24;101235.00;;;5.30
12918;BMP180;6526;54.312;13.092;2022-11-20T04:08:53;101250.00;;;5.40
12918;BMP180;6526;54.312;13.092;2022-11-20T04:11:28;101242.00;;;5.30
12918;BMP180;6526;54.312;13.092;2022-11-20T04:13:57;101245.00;;;5.10
12918;BMP180;6526;54.312;13.092;2022-11-20T04:16:25;101238.00;;;5.10
12918;BMP180;6526;54.312;13.092;2022-11-20T04:18:56;101241.00;;;5.10
12918;BMP180;6526;54.312;13.092;2022-11-20T04:21:23;101243.00;;;5.20
12918;BMP180;6526;54.312;13.092;2022-11-20T04:23:50;101239.00;;;5.20
12918;BMP180;6526;54.312;13.092;2022-11-20T04:26:16;101219.00;;;5.30
12918;BMP180;6526;54.312;13.092;2022-11-20T04:28:42;101254.00;;;5.30
12918;BMP180;6526;54.312;13.092;2022-11-20T04:31:11;101240.00;;;5.40
12918;BMP180;6526;54.312;13.092;2022-11-20T04:33:38;101241.00;;;5.10
12918;BMP180;6526;54.312;13.092;2022-11-20T04:36:14;101241.00;;;5.20
12918;BMP180;6526;54.312;13.092;2022-11-20T04:38:41;101238.00;;;5.10
12918;BMP180;6526;54.312;13.092;2022-11-20T04:41:10;101255.00;;;5.20
12918;BMP180;6526;54.312;13.092;2022-11-20T04:43:37;101234.00;;;5.10
12918;BMP180;6526;54.312;13.092;2022-11-20T04:46:03;101246.00;;;5.00
12918;BMP180;6526;54.312;13.092;2022-11-20T04:48:29;101235.00;;;5.10
12918;BMP180;6526;54.312;13.092;2022-11-20T04:50:56;101233.00;;;5.00
12918;BMP180;6526;54.312;13.092;2022-11-20T04:53:22;101232.00;;;5.00
12918;BMP180;6526;54.312;13.092;2022-11-20T04:55:49;101224.00;;;5.10
12918;BMP180;6526;54.312;13.092;2022-11-20T04:58:15;101238.00;;;5.20
12918;BMP180;6526;54.312;13.092;2022-11-20T05:00:41;101231.00;;;5.20
12918;BMP180;6526;54.312;13.092;2022-11-20T05:03:08;101224.00;;;5.00
12918;BMP180;6526;54.312;13.092;2022-11-20T05:05:34;101220.00;;;4.80
12918;BMP180;6526;54.312;13.092;2022-11-20T05:08:00;101225.00;;;4.70
12918;BMP180;6526;54.312;13.092;2022-11-20T05:10:27;101223.00;;;4.80
12918;BMP180;6526;54.312;13.092;2022-11-20T05:12:53;101233.00;;;4.90
12918;BMP180;6526;54.312;13.092;2022-11-20T05:15:20;101215.00;;;4.80
12918;BMP180;6526;54.312;13.092;2022-11-20T05:17:50;101218.00;;;4.80
12918;BMP180;6526;54.312;13.092;2022-11-20T05:20:17;101224.00;;;4.60
12918;BMP180;6526;54.312;13.092;2022-11-20T05:22:44;101216.00;;;4.80
12918;BMP180;6526;54.312;13.092;2022-11-20T05:25:11;101219.00;;;4.90
12918;BMP180;6526;54.312;13.092;2022-11-20T05:27:37;101226.00;;;4.90
12918;BMP180;6526;54.312;13.092;2022-11-20T05:30:04;101225.00;;;4.80
12918;BMP180;6526;54.312;13.092;2022-11-20T05:32:30;101215.00;;;4.70
12918;BMP180;6526;54.312;13.092;2022-11-20T05:34:56;101215.00;;;4.70
12918;BMP180;6526;54.312;13.092;2022-11-20T05:37:23;101215.00;;;4.70
12918;BMP180;6526;54.312;13.092;2022-11-20T05:39:49;101220.00;;;4.80
12918;BMP180;6526;54.312;13.092;2022-11-20T05:42:15;101219.00;;;4.90
12918;BMP180;6526;54.312;13.092;2022-11-20T05:45:03;101215.00;;;4.80
12918;BMP180;6526;54.312;13.092;2022-11-20T05:47:32;101212.00;;;4.70
12918;BMP180;6526;54.312;13.092;2022-11-20T05:49:59;101215.00;;;4.80
12918;BMP180;6526;54.312;13.092;2022-11-20T05:52:27;101216.00;;;4.90
12918;BMP180;6526;54.312;13.092;2022-11-20T05:54:53;101214.00;;;4.90
12918;BMP180;6526;54.312;13.092;2022-11-20T05:57:19;101213.00;;;4.80
12918;BMP180;6526;54.312;13.092;2022-11-20T05:59:45;101217.00;;;4.70
12918;BMP180;6526;54.312;13.092;2022-11-20T06:02:11;101214.00;;;4.60
12918;BMP180;6526;54.312;13.092;2022-11-20T06:04:38;101214.00;;;4.50
12918;BMP180;6526;54.312;13.092;2022-11-20T06:07:05;101209.00;;;4.70
12918;BMP180;6526;54.312;13.092;2022-11-20T06:09:32;101207.00;;;4.90
12918;BMP180;6526;54.312;13.092;2022-11-20T06:11:58;101203.00;;;4.90
12918;BMP180;6526;54.312;13.092;2022-11-20T06:14:24;101203.00;;;4.80
12918;BMP180;6526;54.312;13.092;2022-11-20T06:16:50;101205.00;;;4.80
12918;BMP180;6526;54.312;13.092;2022-11-20T06:19:16;101200.00;;;4.80
12918;BMP180;6526;54.312;13.092;2022-11-20T06:21:42;101203.00;;;4.70
12918;BMP180;6526;54.312;13.092;2022-11-20T06:24:12;101211.00;;;4.60
12918;BMP180;6526;54.312;13.092;2022-11-20T06:26:38;101199.00;;;4.60
12918;BMP180;6526;54.312;13.092;2022-11-20T06:29:04;101206.00;;;4.70
12918;BMP180;6526;54.312;13.092;2022-11-20T06:31:30;101208.00;;;4.60
12918;BMP180;6526;54.312;13.092;2022-11-20T06:34:00;101205.00;;;4.70
12918;BMP180;6526;54.312;13.092;2022-11-20T06:36:26;101199.00;;;4.60
12918;BMP180;6526;54.312;13.092;2022-11-20T06:38:53;101202.00;;;4.60
12918;BMP180;6526;54.312;13.092;2022-11-20T06:41:20;101208.00;;;4.60
12918;BMP180;6526;54.312;13.092;2022-11-20T06:43:47;101205.00;;;4.60
12918;BMP180;6526;54.312;13.092;2022-11-20T06:46:14;101215.00;;;4.70
12918;BMP180;6526;54.312;13.092;2022-11-20T06:48:43;101205.00;;;4.60
12918;BMP180;6526;54.312;13.092;2022-11-20T06:51:09;101217.00;;;4.70
12918;BMP180;6526;54.312;13.092;2022-11-20T06:53:36;101204.00;;;4.60
12918;BMP180;6526;54.312;13.092;2022-11-20T06:56:03;101207.00;;;4.50
12918;BMP180;6526;54.312;13.092;2022-11-20T06:58:31;101215.00;;;4.60
12918;BMP180;6526;54.312;13.092;2022-11-20T07:01:01;101207.00;;;4.60
12918;BMP180;6526;54.312;13.092;2022-11-20T07:03:27;101205.00;;;4.70
12918;BMP180;6526;54.312;13.092;2022-11-20T07:05:57;101194.00;;;4.80
12918;BMP180;6526;54.312;13.092;2022-11-20T07:08:24;101206.00;;;4.80
12918;BMP180;6526;54.312;13.092;2022-11-20T07:10:50;101194.00;;;4.80
12918;BMP180;6526;54.312;13.092;2022-11-20T07:13:16;101201.00;;;4.90
12918;BMP180;6526;54.312;13.092;2022-11-20T07:15:42;101193.00;;;4.90
12918;BMP180;6526;54.312;13.092;2022-11-20T07:18:09;101194.00;;;4.90
12918;BMP180;6526;54.312;13.092;2022-11-20T07:20:35;101192.00;;;4.90
12918;BMP180;6526;54.312;13.092;2022-11-20T07:23:01;101195.00;;;5.00
12918;BMP180;6526;54.312;13.092;2022-11-20T07:25:28;101191.00;;;5.00
12918;BMP180;6526;54.312;13.092;2022-11-20T07:27:58;101181.00;;;5.10
12918;BMP180;6526;54.312;13.092;2022-11-20T07:30:25;101176.00;;;5.10
12918;BMP180;6526;54.312;13.092;2022-11-20T07:32:52;101175.00;;;5.20
12918;BMP180;6526;54.312;13.092;2022-11-20T07:35:18;101176.00;;;5.10
12918;BMP180;6526;54.312;13.092;2022-11-20T07:37:44;101182.00;;;5.30
12918;BMP180;6526;54.312;13.092;2022-11-20T07:40:12;101186.00;;;5.20
12918;BMP180;6526;54.312;13.092;2022-11-20T07:42:38;101176.00;;;5.20
12918;BMP180;6526;54.312;13.092;2022-11-20T07:45:04;101183.00;;;5.20
12918;BMP180;6526;54.312;13.092;2022-11-20T07:47:36;101174.00;;;5.20
12918;BMP180;6526;54.312;13.092;2022-11-20T07:50:02;101176.00;;;5.40
12918;BMP180;6526;54.312;13.092;2022-11-20T07:52:29;101184.00;;;5.50
12918;BMP180;6526;54.312;13.092;2022-11-20T07:54:55;101174.00;;;5.60
12918;BMP180;6526;54.312;13.092;2022-11-20T07:57:21;101172.00;;;5.60
12918;BMP180;6526;54.312;13.092;2022-11-20T07:59:47;101175.00;;;5.70
12918;BMP180;6526;54.312;13.092;2022-11-20T08:02:13;101169.00;;;5.70
12918;BMP180;6526;54.312;13.092;2022-11-20T08:04:39;101174.00;;;5.70
12918;BMP180;6526;54.312;13.092;2022-11-20T08:07:05;101172.00;;;5.80
12918;BMP180;6526;54.312;13.092;2022-11-20T08:09:31;101167.00;;;5.70
12918;BMP180;6526;54.312;13.092;2022-11-20T08:11:58;101169.00;;;5.70
12918;BMP180;6526;54.312;13.092;2022-11-20T08:14:43;101168.00;;;5.70
12918;BMP180;6526;54.312;13.092;2022-11-20T08:17:09;101164.00;;;5.60
12918;BMP180;6526;54.312;13.092;2022-11-20T08:19:35;101167.00;;;5.50
12918;BMP180;6526;54.312;13.092;2022-11-20T08:22:01;101166.00;;;5.40
12918;BMP180;6526;54.312;13.092;2022-11-20T08:24:27;101172.00;;;5.50
12918;BMP180;6526;54.312;13.092;2022-11-20T08:26:53;101170.00;;;5.60
12918;BMP180;6526;54.312;13.092;2022-11-20T08:29:19;101180.00;;;5.70
12918;BMP180;6526;54.312;13.092;2022-11-20T08:31:45;101161.00;;;5.80
12918;BMP180;6526;54.312;13.092;2022-11-20T08:34:11;101164.00;;;5.90
12918;BMP180;6526;54.312;13.092;2022-11-20T08:36:38;101157.00;;;5.90
12918;BMP180;6526;54.312;13.092;2022-11-20T08:39:04;101161.00;;;5.90
12918;BMP180;6526;54.312;13.092;2022-11-20T08:41:30;101167.00;;;6.00
12918;BMP180;6526;54.312;13.092;2022-11-20T08:44:03;101161.00;;;6.00
12918;BMP180;6526;54.312;13.092;2022-11-20T08:46:35;101164.00;;;6.10
12918;BMP180;6526;54.312;13.092;2022-11-20T08:49:10;101162.00;;;6.20
12918;BMP180;6526;54.312;13.092;2022-11-20T08:51:37;101164.00;;;6.30
12918;BMP180;6526;54.312;13.092;2022-11-20T08:54:04;101165.00;;;6.30
12918;BMP180;6526;54.312;13.092;2022-11-20T08:56:30;101169.00;;;6.20
12918;BMP180;6526;54.312;13.092;2022-11-20T08:58:56;101164.00;;;6.20
12918;BMP180;6526;54.312;13.092;2022-11-20T09:01:23;101156.00;;;6.10
12918;BMP180;6526;54.312;13.092;2022-11-20T09:03:49;101161.00;;;6.00
12918;BMP180;6526;54.312;13.092;2022-11-20T09:06:15;101164.00;;;6.00
12918;BMP180;6526;54.312;13.092;2022-11-20T09:08:42;101164.00;;;6.20
12918;BMP180;6526;54.312;13.092;2022-11-20T09:11:08;101158.00;;;6.20
12918;BMP180;6526;54.312;13.092;2022-11-20T09:13:36;101161.00;;;6.20
12918;BMP180;6526;54.312;13.092;2022-11-20T09:16:04;101153.00;;;6.10
12918;BMP180;6526;54.312;13.092;2022-11-20T09:18:32;101154.00;;;6.10
12918;BMP180;6526;54.312;13.092;2022-11-20T09:20:59;101156.00;;;6.20
12918;BMP180;6526;54.312;13.092;2022-11-20T09:23:26;101160.00;;;6.20
12918;BMP180;6526;54.312;13.092;2022-11-20T09:25:53;101148.00;;;6.10
12918;BMP180;6526;54.312;13.092;2022-11-20T09:28:21;101157.00;;;6.10
12918;BMP180;6526;54.312;13.092;2022-11-20T09:30:47;101151.00;;;6.20
12918;BMP180;6526;54.312;13.092;2022-11-20T09:33:13;101151.00;;;6.20
12918;BMP180;6526;54.312;13.092;2022-11-20T09:35:39;101144.00;;;6.30
12918;BMP180;6526;54.312;13.092;2022-11-20T09:38:07;101139.00;;;6.20
12918;BMP180;6526;54.312;13.092;2022-11-20T09:40:35;101141.00;;;6.20
12918;BMP180;6526;54.312;13.092;2022-11-20T09:43:32;101137.00;;;6.10
12918;BMP180;6526;54.312;13.092;2022-11-20T09:46:22;101129.00;;;6.10
12918;BMP180;6526;54.312;13.092;2022-11-20T09:49:20;101131.00;;;6.50
12918;BMP180;6526;54.312;13.092;2022-11-20T09:51:57;101138.00;;;6.60
12918;BMP180;6526;54.312;13.092;2022-11-20T09:54:35;101127.00;;;6.70
12918;BMP180;6526;54.312;13.092;2022-11-20T09:57:13;101127.00;;;6.90
12918;BMP180;6526;54.312;13.092;2022-11-20T09:59:51;101128.00;;;7.00
12918;BMP180;6526;54.312;13.092;2022-11-20T10:02:29;101131.00;;;7.00
12918;BMP180;6526;54.312;13.092;2022-11-20T10:05:06;101131.00;;;7.20
12918;BMP180;6526;54.312;13.092;2022-11-20T10:07:42;101142.00;;;7.10
12918;BMP180;6526;54.312;13.092;2022-11-20T10:10:32;101130.00;;;7.00
12918;BMP180;6526;54.312;13.092;2022-11-20T10:15:56;101133.00;;;7.20
12918;BMP180;6526;54.312;13.092;2022-11-20T10:18:28;101128.00;;;7.10
12918;BMP180;6526;54.312;13.092;2022-11-20T10:21:27;101136.00;;;7.10
12918;BMP180;6526;54.312;13.092;2022-11-20T10:26:53;101140.00;;;6.80
12918;BMP180;6526;54.312;13.092;2022-11-20T10:29:32;101139.00;;;6.60
12918;BMP180;6526;54.312;13.092;2022-11-20T10:32:10;101134.00;;;6.70
12918;BMP180;6526;54.312;13.092;2022-11-20T10:34:59;101141.00;;;6.60
12918;BMP180;6526;54.312;13.092;2022-11-20T10:37:28;101133.00;;;6.60
12918;BMP180;6526;54.312;13.092;2022-11-20T10:43:32;101137.00;;;6.70
12918;BMP180;6526;54.312;13.092;2022-11-20T10:46:08;101130.00;;;6.60
12918;BMP180;6526;54.312;13.092;2022-11-20T10:48:36;101127.00;;;6.60
12918;BMP180;6526;54.312;13.092;2022-11-20T10:51:37;101130.00;;;6.70
12918;BMP180;6526;54.312;13.092;2022-11-20T10:56:45;101121.00;;;6.70
12918;BMP180;6526;54.312;13.092;2022-11-20T11:01:59;101127.00;;;6.60
12918;BMP180;6526;54.312;13.092;2022-11-20T11:04:37;101125.00;;;6.60
12918;BMP180;6526;54.312;13.092;2022-11-20T11:07:19;101117.00;;;6.60
12918;BMP180;6526;54.312;13.092;2022-11-20T11:09:56;101128.00;;;6.70
12918;BMP180;6526;54.312;13.092;2022-11-20T11:12:25;101117.00;;;6.60
12918;BMP180;6526;54.312;13.092;2022-11-20T11:14:54;101121.00;;;6.60
12918;BMP180;6526;54.312;13.092;2022-11-20T11:17:30;101116.00;;;6.70
12918;BMP180;6526;54.312;13.092;2022-11-20T11:20:19;101111.00;;;6.70
12918;BMP180;6526;54.312;13.092;2022-11-20T11:22:50;101111.00;;;6.70
12918;BMP180;6526;54.312;13.092;2022-11-20T11:25:31;101108.00;;;6.60
12918;BMP180;6526;54.312;13.092;2022-11-20T11:28:05;101124.00;;;6.70
12918;BMP180;6526;54.312;13.092;2022-11-20T11:30:42;101119.00;;;6.70
12918;BMP180;6526;54.312;13.092;2022-11-20T11:33:22;101115.00;;;6.80
12918;BMP180;6526;54.312;13.092;2022-11-20T11:35:54;101105.00;;;6.90
12918;BMP180;6526;54.312;13.092;2022-11-20T11:38:38;101107.00;;;7.00
12918;BMP180;6526;54.312;13.092;2022-11-20T11:41:06;101104.00;;;7.00
12918;BMP180;6526;54.312;13.092;2022-11-20T11:43:34;101094.00;;;7.10
12918;BMP180;6526;54.312;13.092;2022-11-20T11:46:32;101095.00;;;7.30
12918;BMP180;6526;54.312;13.092;2022-11-20T11:54:26;101085.00;;;7.80
12918;BMP180;6526;54.312;13.092;2022-11-20T11:56:53;101087.00;;;7.80
12918;BMP180;6526;54.312;13.092;2022-11-20T11:59:52;101079.00;;;7.90
12918;BMP180;6526;54.312;13.092;2022-11-20T12:02:36;101082.00;;;7.70
12918;BMP180;6526;54.312;13.092;2022-11-20T12:05:15;101082.00;;;7.80
12918;BMP180;6526;54.312;13.092;2022-11-20T12:07:55;101089.00;;;7.90
12918;BMP180;6526;54.312;13.092;2022-11-20T12:13:36;101082.00;;;7.80
12918;BMP180;6526;54.312;13.092;2022-11-20T12:16:09;101084.00;;;7.80
12918;BMP180;6526;54.312;13.092;2022-11-20T12:18:36;101075.00;;;7.80
12918;BMP180;6526;54.312;13.092;2022-11-20T12:21:19;101080.00;;;7.90
12918;BMP180;6526;54.312;13.092;2022-11-20T12:29:24;101082.00;;;7.90
12918;BMP180;6526;54.312;13.092;2022-11-20T12:37:24;101076.00;;;7.70
12918;BMP180;6526;54.312;13.092;2022-11-20T12:43:09;101069.00;;;7.60
12918;BMP180;6526;54.312;13.092;2022-11-20T12:46:13;101070.00;;;7.60
12918;BMP180;6526;54.312;13.092;2022-11-20T12:51:41;101066.00;;;7.40
12918;BMP180;6526;54.312;13.092;2022-11-20T13:00:03;101064.00;;;7.20
12918;BMP180;6526;54.312;13.092;2022-11-20T13:08:37;101054.00;;;7.20
12918;BMP180;6526;54.312;13.092;2022-11-20T13:11:27;101051.00;;;7.30
12918;BMP180;6526;54.312;13.092;2022-11-20T13:17:31;101048.00;;;7.30
12918;BMP180;6526;54.312;13.092;2022-11-20T13:19:59;101052.00;;;7.30
12918;BMP180;6526;54.312;13.092;2022-11-20T13:22:42;101058.00;;;7.30
12918;BMP180;6526;54.312;13.092;2022-11-20T13:27:49;101043.00;;;7.40
12918;BMP180;6526;54.312;13.092;2022-11-20T13:30:18;101039.00;;;7.40
12918;BMP180;6526;54.312;13.092;2022-11-20T13:33:01;101032.00;;;7.50
12918;BMP180;6526;54.312;13.092;2022-11-20T13:35:37;101038.00;;;7.50
12918;BMP180;6526;54.312;13.092;2022-11-20T13:40:36;101042.00;;;7.50
12918;BMP180;6526;54.312;13.092;2022-11-20T13:43:22;101052.00;;;7.40
12918;BMP180;6526;54.312;13.092;2022-11-20T13:46:09;101045.00;;;7.60
12918;BMP180;6526;54.312;13.092;2022-11-20T13:48:43;101052.00;;;7.50
12918;BMP180;6526;54.312;13.092;2022-11-20T13:51:35;101043.00;;;7.50
12918;BMP180;6526;54.312;13.092;2022-11-20T13:56:54;101023.00;;;7.60
12918;BMP180;6526;54.312;13.092;2022-11-20T13:59:44;101031.00;;;7.50
12918;BMP180;6526;54.312;13.092;2022-11-20T14:02:18;101027.00;;;7.50
12918;BMP180;6526;54.312;13.092;2022-11-20T14:04:54;101020.00;;;7.40
12918;BMP180;6526;54.312;13.092;2022-11-20T14:07:25;101025.00;;;7.30
12918;BMP180;6526;54.312;13.092;2022-11-20T14:09:54;101027.00;;;7.30
12918;BMP180;6526;54.312;13.092;2022-11-20T14:12:26;101021.00;;;7.30
12918;BMP180;6526;54.312;13.092;2022-11-20T14:14:54;101023.00;;;7.20
12918;BMP180;6526;54.312;13.092;2022-11-20T14:17:40;101022.00;;;7.10
12918;BMP180;6526;54.312;13.092;2022-11-20T14:20:12;101022.00;;;7.20
12918;BMP180;6526;54.312;13.092;2022-11-20T14:22:49;101036.00;;;7.00
12918;BMP180;6526;54.312;13.092;2022-11-20T14:27:43;101029.00;;;6.90
12918;BMP180;6526;54.312;13.092;2022-11-20T14:30:19;101026.00;;;6.80
12918;BMP180;6526;54.312;13.092;2022-11-20T14:32:46;101029.00;;;6.80
12918;BMP180;6526;54.312;13.092;2022-11-20T14:35:27;101035.00;;;6.60
12918;BMP180;6526;54.312;13.092;2022-11-20T14:37:54;101023.00;;;6.60
12918;BMP180;6526;54.312;13.092;2022-11-20T14:40:30;101022.00;;;6.40
12918;BMP180;6526;54.312;13.092;2022-11-20T14:42:57;101024.00;;;6.30
12918;BMP180;6526;54.312;13.092;2022-11-20T14:45:25;100993.00;;;6.40
12918;BMP180;6526;54.312;13.092;2022-11-20T14:47:53;101019.00;;;6.40
12918;BMP180;6526;54.312;13.092;2022-11-20T14:50:30;101030.00;;;6.40
12918;BMP180;6526;54.312;13.092;2022-11-20T14:52:58;101027.00;;;6.30
12918;BMP180;6526;54.312;13.092;2022-11-20T14:57:56;101018.00;;;6.30
12918;BMP180;6526;54.312;13.092;2022-11-20T15:00:23;101014.00;;;6.30
12918;BMP180;6526;54.312;13.092;2022-11-20T15:02:51;101016.00;;;6.20
12918;BMP180;6526;54.312;13.092;2022-11-20T15:05:20;101015.00;;;6.10
12918;BMP180;6526;54.312;13.092;2022-11-20T15:07:49;101014.00;;;6.20
12918;BMP180;6526;54.312;13.092;2022-11-20T15:12:48;101025.00;;;5.80
12918;BMP180;6526;54.312;13.092;2022-11-20T15:15:25;101014.00;;;5.80
12918;BMP180;6526;54.312;13.092;2022-11-20T15:17:52;101004.00;;;5.70
12918;BMP180;6526;54.312;13.092;2022-11-20T15:20:19;101016.00;;;5.70
12918;BMP180;6526;54.312;13.092;2022-11-20T15:22:47;101009.00;;;5.70
12918;BMP180;6526;54.312;13.092;2022-11-20T15:25:14;101018.00;;;5.60
12918;BMP180;6526;54.312;13.092;2022-11-20T15:27:41;101022.00;;;5.60
12918;BMP180;6526;54.312;13.092;2022-11-20T15:30:16;101018.00;;;5.60
12918;BMP180;6526;54.312;13.092;2022-11-20T15:32:43;101002.00;;;5.50
12918;BMP180;6526;54.312;13.092;2022-11-20T15:35:10;101014.00;;;5.50
12918;BMP180;6526;54.312;13.092;2022-11-20T15:37:37;101010.00;;;5.40
12918;BMP180;6526;54.312;13.092;2022-11-20T15:40:04;101022.00;;;5.30
12918;BMP180;6526;54.312;13.092;2022-11-20T15:42:30;101004.00;;;5.20
12918;BMP180;6526;54.312;13.092;2022-11-20T15:44:56;101009.00;;;5.10